sensor_id;sensor_type;location;lat;lon;timestamp;P1;durP1;ratioP1;P2;durP2;ratioP2
25972;SDS011;13765;51.166;4.466;2023-03-03T00:00:54;21.23;;;8.18;;
25972;SDS011;13765;51.166;4.466;2023-03-03T00:03:21;25.70;;;7.93;;
25972;SDS011;13765;51.166;4.466;2023-03-03T00:05:51;24.13;;;9.20;;
25972;SDS011;13765;51.166;4.466;2023-03-03T00:08:20;22.77;;;8.88;;
25972;SDS011;13765;51.166;4.466;2023-03-03T00:10:46;31.88;;;10.23;;
25972;SDS011;13765;51.166;4.466;2023-03-03T00:13:19;22.75;;;8.38;;
25972;SDS011;13765;51.166;4.466;2023-03-03T00:15:49;25.85;;;9.10;;
25972;SDS011;13765;51.166;4.466;2023-03-03T00:20:53;26.33;;;8.85;;
25972;SDS011;13765;51.166;4.466;2023-03-03T00:23:35;23.33;;;8.50;;
25972;SDS011;13765;51.166;4.466;2023-03-03T00:26:17;26.98;;;8.63;;
25972;SDS011;13765;51.166;4.466;2023-03-03T00:29:00;27.17;;;8.57;;
25972;SDS011;13765;51.166;4.466;2023-03-03T00:31:33;23.00;;;8.55;;
25972;SDS011;13765;51.166;4.466;2023-03-03T00:34:46;27.40;;;9.80;;
25972;SDS011;13765;51.166;4.466;2023-03-03T00:36:54;26.00;;;10.32;;
25972;SDS011;13765;51.166;4.466;2023-03-03T00:41:59;25.80;;;8.45;;
25972;SDS011;13765;51.166;4.466;2023-03-03T00:50:13;25.27;;;9.65;;
25972;SDS011;13765;51.166;4.466;2023-03-03T00:55:26;24.33;;;10.00;;
25972;SDS011;13765;51.166;4.466;2023-03-03T00:57:52;29.15;;;10.30;;
25972;SDS011;13765;51.166;4.466;2023-03-03T01:00:18;33.67;;;12.32;;
25972;SDS011;13765;51.166;4.466;2023-03-03T01:02:44;26.88;;;10.57;;
25972;SDS011;13765;51.166;4.466;2023-03-03T01:05:12;23.05;;;9.73;;
25972;SDS011;13765;51.166;4.466;2023-03-03T01:07:38;20.77;;;8.63;;
25972;SDS011;13765;51.166;4.466;2023-03-03T01:10:07;24.90;;;8.90;;
25972;SDS011;13765;51.166;4.466;2023-03-03T01:15:09;22.02;;;8.60;;
25972;SDS011;13765;51.166;4.466;2023-03-03T01:17:38;35.55;;;11.25;;
25972;SDS011;13765;51.166;4.466;2023-03-03T01:20:10;27.08;;;9.70;;
25972;SDS011;13765;51.166;4.466;2023-03-03T01:22:37;27.40;;;9.55;;
25972;SDS011;13765;51.166;4.466;2023-03-03T01:25:03;27.98;;;10.15;;
25972;SDS011;13765;51.166;4.466;2023-03-03T01:27:29;29.48;;;10.10;;
25972;SDS011;13765;51.166;4.466;2023-03-03T01:29:58;28.98;;;10.57;;
25972;SDS011;13765;51.166;4.466;2023-03-03T01:32:24;32.40;;;9.45;;
25972;SDS011;13765;51.166;4.466;2023-03-03T01:34:51;28.33;;;9.75;;
25972;SDS011;13765;51.166;4.466;2023-03-03T01:37:17;29.20;;;9.68;;
25972;SDS011;13765;51.166;4.466;2023-03-03T01:39:46;23.80;;;9.48;;
25972;SDS011;13765;51.166;4.466;2023-03-03T01:42:13;30.60;;;13.23;;
25972;SDS011;13765;51.166;4.466;2023-03-03T01:44:41;26.48;;;9.63;;
25972;SDS011;13765;51.166;4.466;2023-03-03T01:47:07;23.77;;;9.00;;
25972;SDS011;13765;51.166;4.466;2023-03-03T01:52:13;30.10;;;11.10;;
25972;SDS011;13765;51.166;4.466;2023-03-03T01:54:56;29.13;;;10.45;;
25972;SDS011;13765;51.166;4.466;2023-03-03T01:57:28;29.80;;;9.77;;
25972;SDS011;13765;51.166;4.466;2023-03-03T01:59:59;26.00;;;9.25;;
25972;SDS011;13765;51.166;4.466;2023-03-03T02:02:29;24.00;;;9.65;;
25972;SDS011;13765;51.166;4.466;2023-03-03T02:04:58;27.20;;;9.90;;
25972;SDS011;13765;51.166;4.466;2023-03-03T02:07:26;28.17;;;9.05;;
25972;SDS011;13765;51.166;4.466;2023-03-03T02:12:35;34.05;;;10.25;;
25972;SDS011;13765;51.166;4.466;2023-03-03T02:17:46;29.33;;;9.82;;
25972;SDS011;13765;51.166;4.466;2023-03-03T02:22:56;28.20;;;9.75;;
25972;SDS011;13765;51.166;4.466;2023-03-03T02:28:22;28.25;;;9.55;;
25972;SDS011;13765;51.166;4.466;2023-03-03T02:30:55;26.13;;;10.98;;
25972;SDS011;13765;51.166;4.466;2023-03-03T02:33:22;34.30;;;10.73;;
25972;SDS011;13765;51.166;4.466;2023-03-03T02:35:53;29.63;;;8.75;;
25972;SDS011;13765;51.166;4.466;2023-03-03T02:41:08;29.55;;;9.68;;
25972;SDS011;13765;51.166;4.466;2023-03-03T02:43:38;22.77;;;8.63;;
25972;SDS011;13765;51.166;4.466;2023-03-03T02:46:20;25.63;;;11.18;;
25972;SDS011;13765;51.166;4.466;2023-03-03T02:48:46;25.75;;;10.55;;
25972;SDS011;13765;51.166;4.466;2023-03-03T02:51:11;21.92;;;7.07;;
25972;SDS011;13765;51.166;4.466;2023-03-03T02:53:42;20.85;;;9.18;;
25972;SDS011;13765;51.166;4.466;2023-03-03T02:56:07;32.15;;;12.68;;
25972;SDS011;13765;51.166;4.466;2023-03-03T02:58:36;29.77;;;10.07;;
25972;SDS011;13765;51.166;4.466;2023-03-03T03:01:06;30.25;;;10.93;;
25972;SDS011;13765;51.166;4.466;2023-03-03T03:03:34;33.50;;;11.05;;
25972;SDS011;13765;51.166;4.466;2023-03-03T03:06:02;30.20;;;9.75;;
25972;SDS011;13765;51.166;4.466;2023-03-03T03:08:28;28.00;;;11.10;;
25972;SDS011;13765;51.166;4.466;2023-03-03T03:10:54;26.27;;;11.23;;
25972;SDS011;13765;51.166;4.466;2023-03-03T03:13:21;25.77;;;9.88;;
25972;SDS011;13765;51.166;4.466;2023-03-03T03:15:48;24.33;;;9.45;;
25972;SDS011;13765;51.166;4.466;2023-03-03T03:18:15;26.63;;;11.75;;
25972;SDS011;13765;51.166;4.466;2023-03-03T03:20:41;23.33;;;10.48;;
25972;SDS011;13765;51.166;4.466;2023-03-03T03:23:08;33.15;;;12.75;;
25972;SDS011;13765;51.166;4.466;2023-03-03T03:25:35;31.20;;;11.73;;
25972;SDS011;13765;51.166;4.466;2023-03-03T03:28:10;34.90;;;14.15;;
25972;SDS011;13765;51.166;4.466;2023-03-03T03:30:36;35.55;;;14.82;;
25972;SDS011;13765;51.166;4.466;2023-03-03T03:33:03;38.72;;;14.07;;
25972;SDS011;13765;51.166;4.466;2023-03-03T03:35:34;29.10;;;12.48;;
25972;SDS011;13765;51.166;4.466;2023-03-03T03:38:00;29.05;;;11.43;;
25972;SDS011;13765;51.166;4.466;2023-03-03T03:40:26;34.00;;;14.15;;
25972;SDS011;13765;51.166;4.466;2023-03-03T03:42:52;28.33;;;10.02;;
25972;SDS011;13765;51.166;4.466;2023-03-03T03:45:21;34.13;;;12.38;;
25972;SDS011;13765;51.166;4.466;2023-03-03T03:47:47;26.42;;;11.63;;
25972;SDS011;13765;51.166;4.466;2023-03-03T03:50:13;28.17;;;11.13;;
25972;SDS011;13765;51.166;4.466;2023-03-03T03:52:38;25.95;;;9.95;;
25972;SDS011;13765;51.166;4.466;2023-03-03T03:55:07;38.85;;;11.82;;
25972;SDS011;13765;51.166;4.466;2023-03-03T03:57:33;28.98;;;10.13;;
25972;SDS011;13765;51.166;4.466;2023-03-03T04:00:02;33.92;;;13.02;;
25972;SDS011;13765;51.166;4.466;2023-03-03T04:04:58;31.45;;;12.13;;
25972;SDS011;13765;51.166;4.466;2023-03-03T04:07:26;31.23;;;12.20;;
25972;SDS011;13765;51.166;4.466;2023-03-03T04:09:54;24.35;;;9.52;;
25972;SDS011;13765;51.166;4.466;2023-03-03T04:12:20;28.50;;;11.40;;
25972;SDS011;13765;51.166;4.466;2023-03-03T04:14:45;31.13;;;10.32;;
25972;SDS011;13765;51.166;4.466;2023-03-03T04:17:17;32.33;;;12.82;;
25972;SDS011;13765;51.166;4.466;2023-03-03T04:19:46;34.60;;;11.85;;
25972;SDS011;13765;51.166;4.466;2023-03-03T04:22:15;34.05;;;12.23;;
25972;SDS011;13765;51.166;4.466;2023-03-03T04:24:40;39.47;;;13.70;;
25972;SDS011;13765;51.166;4.466;2023-03-03T04:27:08;30.92;;;12.95;;
25972;SDS011;13765;51.166;4.466;2023-03-03T04:29:39;37.28;;;12.70;;
25972;SDS011;13765;51.166;4.466;2023-03-03T04:32:07;31.95;;;10.73;;
25972;SDS011;13765;51.166;4.466;2023-03-03T04:34:35;30.80;;;12.45;;
25972;SDS011;13765;51.166;4.466;2023-03-03T04:37:01;24.98;;;9.77;;
25972;SDS011;13765;51.166;4.466;2023-03-03T04:39:27;29.40;;;11.90;;
25972;SDS011;13765;51.166;4.466;2023-03-03T04:41:53;36.40;;;11.63;;
25972;SDS011;13765;51.166;4.466;2023-03-03T04:44:19;34.92;;;13.40;;
25972;SDS011;13765;51.166;4.466;2023-03-03T04:46:47;32.08;;;12.32;;
25972;SDS011;13765;51.166;4.466;2023-03-03T04:49:15;34.03;;;13.32;;
25972;SDS011;13765;51.166;4.466;2023-03-03T04:51:43;26.25;;;10.75;;
25972;SDS011;13765;51.166;4.466;2023-03-03T04:54:11;24.20;;;9.50;;
25972;SDS011;13765;51.166;4.466;2023-03-03T04:56:37;27.70;;;9.55;;
25972;SDS011;13765;51.166;4.466;2023-03-03T04:59:04;31.35;;;10.68;;
25972;SDS011;13765;51.166;4.466;2023-03-03T05:01:30;29.10;;;14.23;;
25972;SDS011;13765;51.166;4.466;2023-03-03T05:03:56;24.75;;;10.38;;
25972;SDS011;13765;51.166;4.466;2023-03-03T05:06:21;27.90;;;10.38;;
25972;SDS011;13765;51.166;4.466;2023-03-03T05:08:49;26.90;;;9.57;;
25972;SDS011;13765;51.166;4.466;2023-03-03T05:11:15;34.00;;;11.93;;
25972;SDS011;13765;51.166;4.466;2023-03-03T05:13:41;34.03;;;14.07;;
25972;SDS011;13765;51.166;4.466;2023-03-03T05:16:09;28.17;;;9.88;;
25972;SDS011;13765;51.166;4.466;2023-03-03T05:18:34;31.20;;;10.98;;
25972;SDS011;13765;51.166;4.466;2023-03-03T05:21:00;34.67;;;10.57;;
25972;SDS011;13765;51.166;4.466;2023-03-03T05:23:26;28.20;;;11.25;;
25972;SDS011;13765;51.166;4.466;2023-03-03T05:25:52;34.80;;;10.35;;
25972;SDS011;13765;51.166;4.466;2023-03-03T05:28:20;31.10;;;10.43;;
25972;SDS011;13765;51.166;4.466;2023-03-03T05:30:48;20.42;;;8.32;;
25972;SDS011;13765;51.166;4.466;2023-03-03T05:33:18;34.17;;;10.50;;
25972;SDS011;13765;51.166;4.466;2023-03-03T05:35:52;27.08;;;10.07;;
25972;SDS011;13765;51.166;4.466;2023-03-03T05:38:19;35.13;;;13.35;;
25972;SDS011;13765;51.166;4.466;2023-03-03T05:40:45;31.75;;;11.75;;
25972;SDS011;13765;51.166;4.466;2023-03-03T05:43:13;36.05;;;11.30;;
25972;SDS011;13765;51.166;4.466;2023-03-03T05:45:39;35.92;;;11.43;;
25972;SDS011;13765;51.166;4.466;2023-03-03T05:48:05;34.28;;;12.85;;
25972;SDS011;13765;51.166;4.466;2023-03-03T05:50:31;25.17;;;11.55;;
25972;SDS011;13765;51.166;4.466;2023-03-03T05:52:59;28.77;;;10.93;;
25972;SDS011;13765;51.166;4.466;2023-03-03T05:55:29;27.05;;;8.45;;
25972;SDS011;13765;51.166;4.466;2023-03-03T05:57:57;31.38;;;10.07;;
25972;SDS011;13765;51.166;4.466;2023-03-03T06:00:25;29.60;;;9.23;;
25972;SDS011;13765;51.166;4.466;2023-03-03T06:02:51;33.83;;;10.07;;
25972;SDS011;13765;51.166;4.466;2023-03-03T06:05:19;23.85;;;9.68;;
25972;SDS011;13765;51.166;4.466;2023-03-03T06:07:47;21.83;;;8.90;;
25972;SDS011;13765;51.166;4.466;2023-03-03T06:10:13;20.33;;;7.80;;
25972;SDS011;13765;51.166;4.466;2023-03-03T06:12:39;30.23;;;8.13;;
25972;SDS011;13765;51.166;4.466;2023-03-03T06:15:07;24.65;;;9.73;;
25972;SDS011;13765;51.166;4.466;2023-03-03T06:17:33;25.25;;;9.30;;
25972;SDS011;13765;51.166;4.466;2023-03-03T06:19:58;26.63;;;9.60;;
25972;SDS011;13765;51.166;4.466;2023-03-03T06:22:27;32.55;;;10.90;;
25972;SDS011;13765;51.166;4.466;2023-03-03T06:24:52;28.65;;;10.52;;
25972;SDS011;13765;51.166;4.466;2023-03-03T06:27:18;30.90;;;10.93;;
25972;SDS011;13765;51.166;4.466;2023-03-03T06:29:46;25.00;;;8.90;;
25972;SDS011;13765;51.166;4.466;2023-03-03T06:32:15;27.17;;;12.27;;
25972;SDS011;13765;51.166;4.466;2023-03-03T06:34:42;24.70;;;8.13;;
25972;SDS011;13765;51.166;4.466;2023-03-03T06:37:10;21.05;;;7.22;;
25972;SDS011;13765;51.166;4.466;2023-03-03T06:39:36;22.65;;;7.05;;
25972;SDS011;13765;51.166;4.466;2023-03-03T06:42:02;22.35;;;7.45;;
25972;SDS011;13765;51.166;4.466;2023-03-03T06:44:27;24.63;;;7.40;;
25972;SDS011;13765;51.166;4.466;2023-03-03T06:46:53;20.48;;;6.45;;
25972;SDS011;13765;51.166;4.466;2023-03-03T06:49:23;16.05;;;6.50;;
25972;SDS011;13765;51.166;4.466;2023-03-03T06:51:49;20.48;;;6.75;;
25972;SDS011;13765;51.166;4.466;2023-03-03T06:54:16;15.52;;;6.30;;
25972;SDS011;13765;51.166;4.466;2023-03-03T06:56:43;23.58;;;7.07;;
25972;SDS011;13765;51.166;4.466;2023-03-03T06:59:17;20.67;;;7.80;;
25972;SDS011;13765;51.166;4.466;2023-03-03T07:01:46;20.92;;;7.45;;
25972;SDS011;13765;51.166;4.466;2023-03-03T07:07:09;22.20;;;8.77;;
25972;SDS011;13765;51.166;4.466;2023-03-03T07:09:40;30.23;;;9.93;;
25972;SDS011;13765;51.166;4.466;2023-03-03T07:12:19;20.65;;;7.35;;
25972;SDS011;13765;51.166;4.466;2023-03-03T07:14:51;24.40;;;9.02;;
25972;SDS011;13765;51.166;4.466;2023-03-03T07:17:26;21.70;;;7.32;;
25972;SDS011;13765;51.166;4.466;2023-03-03T07:19:52;21.50;;;7.03;;
25972;SDS011;13765;51.166;4.466;2023-03-03T07:22:23;23.05;;;9.10;;
25972;SDS011;13765;51.166;4.466;2023-03-03T07:24:52;27.88;;;9.30;;
25972;SDS011;13765;51.166;4.466;2023-03-03T07:27:22;23.63;;;7.82;;
25972;SDS011;13765;51.166;4.466;2023-03-03T07:30:12;21.85;;;8.25;;
25972;SDS011;13765;51.166;4.466;2023-03-03T07:32:42;25.10;;;9.18;;
25972;SDS011;13765;51.166;4.466;2023-03-03T07:37:52;21.73;;;7.10;;
25972;SDS011;13765;51.166;4.466;2023-03-03T07:40:34;19.52;;;6.13;;
25972;SDS011;13765;51.166;4.466;2023-03-03T07:43:42;20.15;;;6.72;;
25972;SDS011;13765;51.166;4.466;2023-03-03T07:48:46;17.42;;;5.93;;
25972;SDS011;13765;51.166;4.466;2023-03-03T07:51:19;20.17;;;6.03;;
25972;SDS011;13765;51.166;4.466;2023-03-03T07:53:59;21.27;;;6.82;;
25972;SDS011;13765;51.166;4.466;2023-03-03T07:56:44;21.00;;;6.65;;
25972;SDS011;13765;51.166;4.466;2023-03-03T07:59:22;26.17;;;8.95;;
25972;SDS011;13765;51.166;4.466;2023-03-03T08:01:51;21.45;;;7.05;;
25972;SDS011;13765;51.166;4.466;2023-03-03T08:14:55;27.48;;;8.93;;
25972;SDS011;13765;51.166;4.466;2023-03-03T08:17:35;20.73;;;7.72;;
25972;SDS011;13765;51.166;4.466;2023-03-03T08:20:07;23.95;;;7.97;;
25972;SDS011;13765;51.166;4.466;2023-03-03T08:23:07;25.90;;;7.53;;
25972;SDS011;13765;51.166;4.466;2023-03-03T08:25:33;20.00;;;7.93;;
25972;SDS011;13765;51.166;4.466;2023-03-03T08:28:01;25.60;;;7.20;;
25972;SDS011;13765;51.166;4.466;2023-03-03T08:30:27;18.45;;;6.90;;
25972;SDS011;13765;51.166;4.466;2023-03-03T08:32:56;17.20;;;6.97;;
25972;SDS011;13765;51.166;4.466;2023-03-03T08:35:22;21.98;;;6.05;;
25972;SDS011;13765;51.166;4.466;2023-03-03T08:37:50;19.08;;;6.82;;
25972;SDS011;13765;51.166;4.466;2023-03-03T08:40:18;21.27;;;7.03;;
25972;SDS011;13765;51.166;4.466;2023-03-03T08:42:43;19.65;;;6.18;;
25972;SDS011;13765;51.166;4.466;2023-03-03T08:45:09;24.25;;;7.78;;
25972;SDS011;13765;51.166;4.466;2023-03-03T08:47:37;22.67;;;7.53;;
25972;SDS011;13765;51.166;4.466;2023-03-03T08:50:03;25.98;;;8.02;;
25972;SDS011;13765;51.166;4.466;2023-03-03T08:52:30;23.50;;;9.68;;
25972;SDS011;13765;51.166;4.466;2023-03-03T08:54:55;25.98;;;10.82;;
25972;SDS011;13765;51.166;4.466;2023-03-03T08:57:21;22.80;;;7.63;;
25972;SDS011;13765;51.166;4.466;2023-03-03T08:59:46;26.38;;;7.93;;
25972;SDS011;13765;51.166;4.466;2023-03-03T09:02:15;23.92;;;9.00;;
25972;SDS011;13765;51.166;4.466;2023-03-03T09:04:43;30.30;;;9.73;;
25972;SDS011;13765;51.166;4.466;2023-03-03T09:07:09;30.13;;;8.68;;
25972;SDS011;13765;51.166;4.466;2023-03-03T09:09:35;28.30;;;10.15;;
25972;SDS011;13765;51.166;4.466;2023-03-03T09:12:12;20.20;;;7.28;;
25972;SDS011;13765;51.166;4.466;2023-03-03T09:14:41;25.38;;;8.77;;
25972;SDS011;13765;51.166;4.466;2023-03-03T09:19:53;25.55;;;8.10;;
25972;SDS011;13765;51.166;4.466;2023-03-03T09:22:24;23.13;;;7.63;;
25972;SDS011;13765;51.166;4.466;2023-03-03T09:24:54;27.33;;;8.52;;
25972;SDS011;13765;51.166;4.466;2023-03-03T09:27:26;22.88;;;6.95;;
25972;SDS011;13765;51.166;4.466;2023-03-03T09:29:53;18.30;;;7.90;;
25972;SDS011;13765;51.166;4.466;2023-03-03T09:34:51;24.13;;;7.63;;
25972;SDS011;13765;51.166;4.466;2023-03-03T09:37:21;28.25;;;9.75;;
25972;SDS011;13765;51.166;4.466;2023-03-03T09:39:52;23.97;;;8.10;;
25972;SDS011;13765;51.166;4.466;2023-03-03T09:56:24;33.33;;;8.73;;
25972;SDS011;13765;51.166;4.466;2023-03-03T09:59:00;15.70;;;6.18;;
25972;SDS011;13765;51.166;4.466;2023-03-03T10:07:28;22.95;;;6.45;;
25972;SDS011;13765;51.166;4.466;2023-03-03T10:10:20;19.80;;;7.50;;
25972;SDS011;13765;51.166;4.466;2023-03-03T10:18:29;22.70;;;7.28;;
25972;SDS011;13765;51.166;4.466;2023-03-03T10:21:10;15.38;;;6.70;;
25972;SDS011;13765;51.166;4.466;2023-03-03T10:37:31;23.58;;;7.97;;
25972;SDS011;13765;51.166;4.466;2023-03-03T10:43:10;24.15;;;6.97;;
25972;SDS011;13765;51.166;4.466;2023-03-03T10:51:07;26.88;;;6.45;;
25972;SDS011;13765;51.166;4.466;2023-03-03T10:54:02;25.70;;;6.93;;
25972;SDS011;13765;51.166;4.466;2023-03-03T10:59:47;27.00;;;7.35;;
25972;SDS011;13765;51.166;4.466;2023-03-03T11:07:37;25.63;;;7.68;;
25972;SDS011;13765;51.166;4.466;2023-03-03T11:21:28;23.77;;;8.23;;
25972;SDS011;13765;51.166;4.466;2023-03-03T11:26:37;22.70;;;7.22;;
25972;SDS011;13765;51.166;4.466;2023-03-03T11:32:15;29.33;;;7.30;;
25972;SDS011;13765;51.166;4.466;2023-03-03T11:39:40;17.70;;;5.70;;
25972;SDS011;13765;51.166;4.466;2023-03-03T11:45:19;21.02;;;6.07;;
25972;SDS011;13765;51.166;4.466;2023-03-03T11:48:01;19.15;;;5.25;;
25972;SDS011;13765;51.166;4.466;2023-03-03T11:50:44;20.30;;;6.57;;
25972;SDS011;13765;51.166;4.466;2023-03-03T11:56:03;17.83;;;5.65;;
25972;SDS011;13765;51.166;4.466;2023-03-03T12:04:14;12.40;;;5.07;;
25972;SDS011;13765;51.166;4.466;2023-03-03T12:12:43;19.23;;;6.47;;
25972;SDS011;13765;51.166;4.466;2023-03-03T12:15:18;19.90;;;5.45;;
25972;SDS011;13765;51.166;4.466;2023-03-03T12:26:12;14.57;;;4.43;;
25972;SDS011;13765;51.166;4.466;2023-03-03T12:28:57;16.05;;;4.25;;
25972;SDS011;13765;51.166;4.466;2023-03-03T12:45:18;13.98;;;3.85;;
25972;SDS011;13765;51.166;4.466;2023-03-03T12:48:11;20.75;;;5.45;;
25972;SDS011;13765;51.166;4.466;2023-03-03T12:56:12;13.68;;;3.58;;
25972;SDS011;13765;51.166;4.466;2023-03-03T13:20:45;10.07;;;4.07;;
25972;SDS011;13765;51.166;4.466;2023-03-03T13:25:58;13.70;;;3.90;;
25972;SDS011;13765;51.166;4.466;2023-03-03T13:28:33;16.23;;;5.22;;
25972;SDS011;13765;51.166;4.466;2023-03-03T13:31:22;15.13;;;4.80;;
25972;SDS011;13765;51.166;4.466;2023-03-03T13:33:57;10.80;;;3.88;;
25972;SDS011;13765;51.166;4.466;2023-03-03T13:39:26;13.15;;;3.47;;
25972;SDS011;13765;51.166;4.466;2023-03-03T13:44:43;13.07;;;4.10;;
25972;SDS011;13765;51.166;4.466;2023-03-03T13:49:48;13.35;;;4.25;;
25972;SDS011;13765;51.166;4.466;2023-03-03T13:58:02;13.65;;;4.53;;
25972;SDS011;13765;51.166;4.466;2023-03-03T14:03:32;11.40;;;3.85;;
25972;SDS011;13765;51.166;4.466;2023-03-03T14:06:14;18.80;;;4.57;;
25972;SDS011;13765;51.166;4.466;2023-03-03T14:12:11;12.70;;;4.00;;
25972;SDS011;13765;51.166;4.466;2023-03-03T14:17:10;10.95;;;3.80;;
25972;SDS011;13765;51.166;4.466;2023-03-03T14:20:04;15.18;;;4.68;;
25972;SDS011;13765;51.166;4.466;2023-03-03T14:22:55;11.65;;;3.63;;
25972;SDS011;13765;51.166;4.466;2023-03-03T14:25:25;9.13;;;3.50;;
25972;SDS011;13765;51.166;4.466;2023-03-03T14:30:41;15.35;;;4.50;;
25972;SDS011;13765;51.166;4.466;2023-03-03T14:35:39;14.45;;;4.60;;
25972;SDS011;13765;51.166;4.466;2023-03-03T14:38:19;11.00;;;3.15;;
25972;SDS011;13765;51.166;4.466;2023-03-03T14:41:03;10.50;;;3.25;;
25972;SDS011;13765;51.166;4.466;2023-03-03T14:43:37;16.13;;;4.72;;
25972;SDS011;13765;51.166;4.466;2023-03-03T14:46:58;15.27;;;5.03;;
25972;SDS011;13765;51.166;4.466;2023-03-03T14:49:13;12.07;;;4.00;;
25972;SDS011;13765;51.166;4.466;2023-03-03T14:51:56;12.23;;;3.17;;
25972;SDS011;13765;51.166;4.466;2023-03-03T14:54:28;10.68;;;4.40;;
25972;SDS011;13765;51.166;4.466;2023-03-03T14:57:03;15.43;;;4.47;;
25972;SDS011;13765;51.166;4.466;2023-03-03T14:59:34;8.50;;;3.45;;
25972;SDS011;13765;51.166;4.466;2023-03-03T15:02:22;10.68;;;4.07;;
25972;SDS011;13765;51.166;4.466;2023-03-03T15:07:45;16.23;;;5.22;;
25972;SDS011;13765;51.166;4.466;2023-03-03T15:10:24;14.35;;;4.35;;
25972;SDS011;13765;51.166;4.466;2023-03-03T15:15:51;12.32;;;3.75;;
25972;SDS011;13765;51.166;4.466;2023-03-03T15:18:26;12.25;;;3.55;;
25972;SDS011;13765;51.166;4.466;2023-03-03T15:26:29;13.52;;;3.88;;
25972;SDS011;13765;51.166;4.466;2023-03-03T15:31:59;9.25;;;3.85;;
25972;SDS011;13765;51.166;4.466;2023-03-03T15:34:46;11.10;;;2.90;;
25972;SDS011;13765;51.166;4.466;2023-03-03T15:40:14;11.55;;;3.53;;
25972;SDS011;13765;51.166;4.466;2023-03-03T15:51:05;10.18;;;3.35;;
25972;SDS011;13765;51.166;4.466;2023-03-03T15:56:51;15.30;;;4.00;;
25972;SDS011;13765;51.166;4.466;2023-03-03T16:02:23;10.00;;;2.75;;
25972;SDS011;13765;51.166;4.466;2023-03-03T16:30:00;8.20;;;3.25;;
25972;SDS011;13765;51.166;4.466;2023-03-03T16:36:09;6.13;;;2.20;;
25972;SDS011;13765;51.166;4.466;2023-03-03T16:38:42;6.30;;;2.63;;
25972;SDS011;13765;51.166;4.466;2023-03-03T16:41:20;7.07;;;2.97;;
25972;SDS011;13765;51.166;4.466;2023-03-03T16:44:29;6.78;;;2.50;;
25972;SDS011;13765;51.166;4.466;2023-03-03T16:52:41;15.57;;;3.90;;
25972;SDS011;13765;51.166;4.466;2023-03-03T16:55:14;7.20;;;2.42;;
25972;SDS011;13765;51.166;4.466;2023-03-03T17:06:21;7.30;;;2.90;;
25972;SDS011;13765;51.166;4.466;2023-03-03T17:12:13;7.15;;;3.00;;
25972;SDS011;13765;51.166;4.466;2023-03-03T17:15:05;8.68;;;3.50;;
25972;SDS011;13765;51.166;4.466;2023-03-03T17:17:42;7.30;;;2.95;;
25972;SDS011;13765;51.166;4.466;2023-03-03T17:23:37;12.68;;;2.92;;
25972;SDS011;13765;51.166;4.466;2023-03-03T17:35:03;7.93;;;3.35;;
25972;SDS011;13765;51.166;4.466;2023-03-03T17:40:19;6.72;;;3.40;;
25972;SDS011;13765;51.166;4.466;2023-03-03T17:45:33;10.27;;;3.28;;
25972;SDS011;13765;51.166;4.466;2023-03-03T18:16:14;10.23;;;3.53;;
25972;SDS011;13765;51.166;4.466;2023-03-03T18:21:53;11.98;;;3.42;;
25972;SDS011;13765;51.166;4.466;2023-03-03T18:24:37;8.48;;;3.65;;
25972;SDS011;13765;51.166;4.466;2023-03-03T18:46:04;11.25;;;3.47;;
25972;SDS011;13765;51.166;4.466;2023-03-03T18:56:41;6.32;;;3.47;;
25972;SDS011;13765;51.166;4.466;2023-03-03T19:02:06;11.63;;;3.65;;
25972;SDS011;13765;51.166;4.466;2023-03-03T19:04:36;7.25;;;3.55;;
25972;SDS011;13765;51.166;4.466;2023-03-03T19:12:50;8.38;;;3.42;;
25972;SDS011;13765;51.166;4.466;2023-03-03T19:20:24;15.07;;;4.07;;
25972;SDS011;13765;51.166;4.466;2023-03-03T19:23:09;8.77;;;4.25;;
25972;SDS011;13765;51.166;4.466;2023-03-03T19:25:40;7.97;;;3.53;;
25972;SDS011;13765;51.166;4.466;2023-03-03T19:31:06;9.73;;;4.53;;
25972;SDS011;13765;51.166;4.466;2023-03-03T19:42:10;8.27;;;3.92;;
25972;SDS011;13765;51.166;4.466;2023-03-03T19:47:53;12.77;;;5.47;;
25972;SDS011;13765;51.166;4.466;2023-03-03T20:06:55;12.43;;;4.65;;
25972;SDS011;13765;51.166;4.466;2023-03-03T20:14:54;12.85;;;4.90;;
25972;SDS011;13765;51.166;4.466;2023-03-03T20:17:35;13.85;;;5.22;;
25972;SDS011;13765;51.166;4.466;2023-03-03T20:25:50;15.32;;;6.03;;
25972;SDS011;13765;51.166;4.466;2023-03-03T20:31:24;16.10;;;6.63;;
25972;SDS011;13765;51.166;4.466;2023-03-03T20:42:16;14.32;;;6.50;;
25972;SDS011;13765;51.166;4.466;2023-03-03T20:48:07;16.30;;;7.20;;
25972;SDS011;13765;51.166;4.466;2023-03-03T20:53:29;12.35;;;5.70;;
25972;SDS011;13765;51.166;4.466;2023-03-03T21:04:24;14.43;;;6.18;;
25972;SDS011;13765;51.166;4.466;2023-03-03T21:06:54;15.23;;;5.22;;
25972;SDS011;13765;51.166;4.466;2023-03-03T21:09:24;16.70;;;6.28;;
25972;SDS011;13765;51.166;4.466;2023-03-03T21:11:52;14.20;;;6.18;;
25972;SDS011;13765;51.166;4.466;2023-03-03T21:14:25;16.50;;;6.55;;
25972;SDS011;13765;51.166;4.466;2023-03-03T21:16:55;19.52;;;6.32;;
25972;SDS011;13765;51.166;4.466;2023-03-03T21:21:51;24.55;;;5.93;;
25972;SDS011;13765;51.166;4.466;2023-03-03T21:24:18;18.15;;;6.82;;
25972;SDS011;13765;51.166;4.466;2023-03-03T21:31:58;13.10;;;4.65;;
25972;SDS011;13765;51.166;4.466;2023-03-03T21:34:34;15.90;;;4.68;;
25972;SDS011;13765;51.166;4.466;2023-03-03T21:37:08;9.57;;;4.55;;
25972;SDS011;13765;51.166;4.466;2023-03-03T21:39:39;13.10;;;4.78;;
25972;SDS011;13765;51.166;4.466;2023-03-03T21:42:11;10.07;;;4.22;;
25972;SDS011;13765;51.166;4.466;2023-03-03T21:44:51;10.02;;;4.45;;
25972;SDS011;13765;51.166;4.466;2023-03-03T21:47:21;18.92;;;5.15;;
25972;SDS011;13765;51.166;4.466;2023-03-03T21:49:47;13.80;;;4.38;;
25972;SDS011;13765;51.166;4.466;2023-03-03T21:52:18;11.35;;;4.30;;
25972;SDS011;13765;51.166;4.466;2023-03-03T21:54:45;13.30;;;4.45;;
25972;SDS011;13765;51.166;4.466;2023-03-03T21:57:12;15.35;;;5.20;;
25972;SDS011;13765;51.166;4.466;2023-03-03T21:59:38;15.05;;;4.40;;
25972;SDS011;13765;51.166;4.466;2023-03-03T22:02:04;12.52;;;4.72;;
25972;SDS011;13765;51.166;4.466;2023-03-03T22:04:35;11.60;;;3.95;;
25972;SDS011;13765;51.166;4.466;2023-03-03T22:07:06;12.23;;;3.90;;
25972;SDS011;13765;51.166;4.466;2023-03-03T22:09:33;13.13;;;4.05;;
25972;SDS011;13765;51.166;4.466;2023-03-03T22:11:58;12.15;;;4.57;;
25972;SDS011;13765;51.166;4.466;2023-03-03T22:14:24;13.55;;;4.18;;
25972;SDS011;13765;51.166;4.466;2023-03-03T22:16:50;15.80;;;5.25;;
25972;SDS011;13765;51.166;4.466;2023-03-03T22:19:18;11.50;;;3.83;;
25972;SDS011;13765;51.166;4.466;2023-03-03T22:21:43;16.75;;;4.07;;
25972;SDS011;13765;51.166;4.466;2023-03-03T22:24:10;8.95;;;3.03;;
25972;SDS011;13765;51.166;4.466;2023-03-03T22:26:36;6.97;;;3.30;;
25972;SDS011;13765;51.166;4.466;2023-03-03T22:29:04;10.38;;;4.15;;
25972;SDS011;13765;51.166;4.466;2023-03-03T22:31:30;9.70;;;2.80;;
25972;SDS011;13765;51.166;4.466;2023-03-03T22:33:58;15.55;;;3.60;;
25972;SDS011;13765;51.166;4.466;2023-03-03T22:36:23;6.85;;;3.03;;
25972;SDS011;13765;51.166;4.466;2023-03-03T22:38:54;11.43;;;3.80;;
25972;SDS011;13765;51.166;4.466;2023-03-03T22:41:19;8.00;;;3.20;;
25972;SDS011;13765;51.166;4.466;2023-03-03T22:43:48;10.75;;;3.35;;
25972;SDS011;13765;51.166;4.466;2023-03-03T22:46:13;9.57;;;3.20;;
25972;SDS011;13765;51.166;4.466;2023-03-03T22:48:39;13.07;;;3.75;;
25972;SDS011;13765;51.166;4.466;2023-03-03T22:51:05;8.25;;;3.80;;
25972;SDS011;13765;51.166;4.466;2023-03-03T22:53:30;10.32;;;3.33;;